createdAt,value
2017-09-18T00:01:51.159Z,77.00
2017-09-18T00:04:18.891Z,77.20
2017-09-18T00:06:45.801Z,77.20
2017-09-18T00:09:12.671Z,77.00
2017-09-18T00:11:39.696Z,77.20
2017-09-18T00:14:06.548Z,77.20
2017-09-18T00:16:33.429Z,77.40
2017-09-18T00:19:00.360Z,77.70
2017-09-18T00:21:27.259Z,77.60
2017-09-18T00:23:54.132Z,77.30
2017-09-18T00:26:21.052Z,77.30
2017-09-18T00:28:48.042Z,77.70
2017-09-18T00:31:14.907Z,77.60
2017-09-18T00:33:41.863Z,77.50
2017-09-18T00:36:09.516Z,77.70
2017-09-18T00:38:36.477Z,77.60
2017-09-18T00:41:03.446Z,78.00
2017-09-18T00:43:30.319Z,78.30
2017-09-18T00:45:57.307Z,78.40
2017-09-18T00:48:24.204Z,78.60
2017-09-18T00:50:51.185Z,78.70
2017-09-18T00:53:18.351Z,78.90
2017-09-18T00:55:45.319Z,78.70
2017-09-18T00:58:13.724Z,79.00
2017-09-18T01:00:40.680Z,79.60
2017-09-18T01:03:07.567Z,79.70
2017-09-18T01:05:34.450Z,79.70
2017-09-18T01:08:01.423Z,79.80
2017-09-18T01:10:28.343Z,80.10
2017-09-18T01:12:55.294Z,80.20
2017-09-18T01:15:22.187Z,80.30
2017-09-18T01:17:49.145Z,80.50
2017-09-18T01:20:29.026Z,80.60
2017-09-18T01:25:35.654Z,80.80
2017-09-18T01:28:02.779Z,80.80
2017-09-18T01:30:29.748Z,81.20
2017-09-18T01:32:56.769Z,80.90
2017-09-18T01:35:23.765Z,80.70
2017-09-18T01:37:50.629Z,80.40
2017-09-18T01:40:17.521Z,80.40
2017-09-18T01:42:44.447Z,80.50
2017-09-18T01:45:11.412Z,80.50
2017-09-18T01:47:38.302Z,80.80
2017-09-18T01:50:05.186Z,81.10
2017-09-18T01:52:32.137Z,81.20
2017-09-18T01:54:59.025Z,81.20
2017-09-18T01:57:25.923Z,80.90
2017-09-18T01:59:52.975Z,81.00
2017-09-18T02:02:19.891Z,81.20
2017-09-18T02:04:47.574Z,81.10
2017-09-18T02:07:14.586Z,81.10
2017-09-18T02:09:41.467Z,80.60
2017-09-18T02:12:08.425Z,80.40
2017-09-18T02:14:35.304Z,80.50
2017-09-18T02:17:02.169Z,80.60
2017-09-18T02:19:29.142Z,80.50
2017-09-18T02:21:56.800Z,79.80
2017-09-18T02:24:23.741Z,79.70
2017-09-18T02:26:51.443Z,80.00
2017-09-18T02:29:18.388Z,80.00
2017-09-18T02:31:45.293Z,80.20
2017-09-18T02:34:12.993Z,80.50
2017-09-18T02:36:39.971Z,80.50
2017-09-18T02:41:53.481Z,80.40
2017-09-18T02:44:48.419Z,80.80
2017-09-18T02:47:17.296Z,80.20
2017-09-18T02:49:50.513Z,80.40
2017-09-18T02:52:17.416Z,80.30
2017-09-18T02:54:45.050Z,80.40
2017-09-18T02:57:12.004Z,80.30
2017-09-18T02:59:38.865Z,80.40
2017-09-18T03:02:05.816Z,79.80
2017-09-18T03:04:33.432Z,79.40
2017-09-18T03:07:00.310Z,79.40
2017-09-18T03:09:27.328Z,79.40
2017-09-18T03:11:54.228Z,79.20
2017-09-18T03:14:21.827Z,79.60
2017-09-18T03:16:48.790Z,79.50
2017-09-18T03:19:15.694Z,79.60
2017-09-18T03:21:42.639Z,79.80
2017-09-18T03:24:09.628Z,79.60
2017-09-18T03:26:36.531Z,80.20
2017-09-18T03:29:03.424Z,79.60
2017-09-18T03:31:30.456Z,79.90
2017-09-18T03:33:57.477Z,79.30
2017-09-18T03:36:24.410Z,79.60
2017-09-18T03:38:52.134Z,78.70
2017-09-18T03:41:19.024Z,78.60
2017-09-18T03:43:46.070Z,78.90
2017-09-18T03:46:13.020Z,78.80
2017-09-18T03:48:39.904Z,79.60
2017-09-18T03:51:06.861Z,79.70
2017-09-18T03:53:33.776Z,80.30
2017-09-18T03:56:00.812Z,80.10
2017-09-18T03:58:27.795Z,80.00
2017-09-18T04:00:54.741Z,79.70
2017-09-18T04:03:21.619Z,79.80
2017-09-18T04:05:49.366Z,80.20
2017-09-18T04:08:16.320Z,80.10
2017-09-18T04:10:43.303Z,79.90
2017-09-18T04:13:10.189Z,80.00
2017-09-18T04:15:37.218Z,80.30
2017-09-18T04:18:04.151Z,80.50
2017-09-18T04:20:31.035Z,80.40
2017-09-18T04:23:02.308Z,80.50
2017-09-18T04:25:32.263Z,80.50
2017-09-18T04:27:59.451Z,80.10
2017-09-18T04:30:28.866Z,79.70
2017-09-18T04:32:56.414Z,79.70
2017-09-18T04:35:23.345Z,79.90
2017-09-18T04:37:54.345Z,81.20
2017-09-18T04:40:34.379Z,81.10
2017-09-18T04:43:06.654Z,80.50
2017-09-18T04:45:33.522Z,80.40
2017-09-18T04:48:06.530Z,80.30
2017-09-18T04:50:33.412Z,79.80
2017-09-18T04:53:02.685Z,80.20
2017-09-18T04:55:29.633Z,80.70
2017-09-18T04:57:57.176Z,80.70
2017-09-18T05:00:24.162Z,80.90
2017-09-18T05:02:51.084Z,80.80
2017-09-18T05:05:18.025Z,80.90
2017-09-18T05:07:44.895Z,81.20
2017-09-18T05:10:26.278Z,81.20
2017-09-18T05:12:54.283Z,81.00
2017-09-18T05:15:27.436Z,81.40
2017-09-18T05:17:57.745Z,81.50
2017-09-18T05:20:26.006Z,81.90
2017-09-18T05:22:52.916Z,82.60
2017-09-18T05:25:19.832Z,82.20
2017-09-18T05:27:46.888Z,81.80
2017-09-18T05:30:13.801Z,81.60
2017-09-18T05:32:40.771Z,81.90
2017-09-18T05:35:07.764Z,81.90
2017-09-18T05:37:34.915Z,82.10
2017-09-18T05:40:01.889Z,82.30
2017-09-18T05:42:28.809Z,82.20
2017-09-18T05:44:55.756Z,82.30
2017-09-18T05:47:22.644Z,81.90
2017-09-18T05:49:49.531Z,81.80
2017-09-18T05:52:16.485Z,81.90
2017-09-18T05:54:44.180Z,81.60
2017-09-18T06:00:09.961Z,81.60
2017-09-18T06:02:39.336Z,81.70
2017-09-18T06:05:10.261Z,81.70
2017-09-18T06:07:38.377Z,81.80
2017-09-18T06:10:05.495Z,81.70
2017-09-18T06:12:45.099Z,81.60
2017-09-18T06:18:00.157Z,81.80
2017-09-18T06:20:27.140Z,81.40
2017-09-18T06:22:54.758Z,81.10
2017-09-18T06:25:22.761Z,81.00
2017-09-18T06:27:50.345Z,80.90
2017-09-18T06:30:17.988Z,80.70
2017-09-18T06:32:45.001Z,80.70
2017-09-18T06:35:11.968Z,80.50
2017-09-18T06:37:38.857Z,80.50
2017-09-18T06:40:05.812Z,80.10
2017-09-18T06:42:32.827Z,79.80
2017-09-18T06:45:00.569Z,79.50
2017-09-18T06:47:27.525Z,78.90
2017-09-18T06:49:54.437Z,78.60
2017-09-18T06:52:21.374Z,77.20
2017-09-18T06:54:48.266Z,76.00
2017-09-18T06:57:15.137Z,75.70
2017-09-18T06:59:42.077Z,75.50
2017-09-18T07:02:09.696Z,74.50
2017-09-18T07:04:36.584Z,74.50
2017-09-18T07:07:04.282Z,73.70
2017-09-18T07:09:31.229Z,73.00
2017-09-18T07:11:58.205Z,71.30
2017-09-18T07:14:25.076Z,69.70
2017-09-18T07:16:52.775Z,67.30
2017-09-18T07:19:19.722Z,67.30
2017-09-18T07:21:46.596Z,67.00
2017-09-18T07:24:13.574Z,66.10
2017-09-18T07:26:40.520Z,66.50
2017-09-18T07:29:07.459Z,66.80
2017-09-18T07:31:34.456Z,66.20
2017-09-18T07:34:01.968Z,64.40
2017-09-18T07:36:28.960Z,64.60
2017-09-18T07:38:56.030Z,64.20
2017-09-18T07:41:22.961Z,64.90
2017-09-18T07:43:50.024Z,64.90
2017-09-18T07:46:16.908Z,65.70
2017-09-18T07:48:43.944Z,65.20
2017-09-18T07:51:11.340Z,64.70
2017-09-18T07:53:38.255Z,63.80
2017-09-18T07:58:50.185Z,64.70
2017-09-18T08:01:17.872Z,65.60
2017-09-18T08:03:44.793Z,65.60
2017-09-18T08:06:11.760Z,65.40
2017-09-18T08:08:38.673Z,65.40
2017-09-18T08:13:51.319Z,65.00
2017-09-18T08:16:18.988Z,65.10
2017-09-18T08:18:46.611Z,64.30
2017-09-18T08:21:13.568Z,64.30
2017-09-18T08:23:40.512Z,64.70
2017-09-18T08:26:07.392Z,65.00
2017-09-18T08:28:35.012Z,65.40
2017-09-18T08:31:01.974Z,65.40
2017-09-18T08:33:28.913Z,66.40
2017-09-18T08:35:55.921Z,65.20
2017-09-18T08:38:22.781Z,66.80
2017-09-18T08:40:49.771Z,66.70
2017-09-18T08:43:16.718Z,66.40
2017-09-18T08:45:43.667Z,65.30
2017-09-18T08:48:10.556Z,65.50
2017-09-18T08:50:37.532Z,64.90
2017-09-18T08:53:04.448Z,64.90
2017-09-18T08:55:31.428Z,65.30
2017-09-18T08:57:58.302Z,64.30
2017-09-18T09:00:25.270Z,63.90
2017-09-18T09:02:52.317Z,61.80
2017-09-18T09:05:19.337Z,59.90
2017-09-18T09:07:47.161Z,59.40
2017-09-18T09:10:14.150Z,59.40
2017-09-18T09:12:41.848Z,61.00
2017-09-18T09:15:08.828Z,60.40
2017-09-18T09:17:35.792Z,60.40
2017-09-18T09:20:02.754Z,59.50
2017-09-18T09:22:30.411Z,57.80
2017-09-18T09:24:58.455Z,58.30
2017-09-18T09:27:25.425Z,58.30
2017-09-18T09:29:52.395Z,57.80
2017-09-18T09:32:20.180Z,57.40
2017-09-18T09:34:47.176Z,57.40
2017-09-18T09:37:14.124Z,56.50
2017-09-18T09:39:41.010Z,57.30
2017-09-18T09:42:08.047Z,57.90
2017-09-18T09:44:35.753Z,56.60
2017-09-18T09:47:02.757Z,56.60
2017-09-18T09:49:30.462Z,56.70
2017-09-18T09:51:57.441Z,56.60
2017-09-18T09:54:24.373Z,57.00
2017-09-18T09:56:51.320Z,57.10
2017-09-18T09:59:18.277Z,57.00
2017-09-18T10:01:45.223Z,57.30
2017-09-18T10:04:12.189Z,57.00
2017-09-18T10:06:39.073Z,56.20
2017-09-18T10:09:06.061Z,53.60
2017-09-18T10:11:32.962Z,54.40
2017-09-18T10:13:59.909Z,54.40
2017-09-18T10:16:26.861Z,54.50
2017-09-18T10:18:53.768Z,52.80
2017-09-18T10:21:20.727Z,51.60
2017-09-18T10:23:48.434Z,52.20
2017-09-18T10:26:15.320Z,52.80
2017-09-18T10:28:42.229Z,51.70
2017-09-18T10:31:09.273Z,52.00
2017-09-18T10:33:36.265Z,52.50
2017-09-18T10:36:03.992Z,53.80
2017-09-18T10:38:31.048Z,53.80
2017-09-18T10:40:58.093Z,54.40
2017-09-18T10:43:25.069Z,55.00
2017-09-18T10:45:52.061Z,53.30
2017-09-18T10:48:18.933Z,52.60
2017-09-18T10:50:45.961Z,52.20
2017-09-18T10:53:12.908Z,51.90
2017-09-18T10:55:39.868Z,51.70
2017-09-18T10:58:06.790Z,52.30
2017-09-18T11:00:33.787Z,50.70
2017-09-18T11:03:00.692Z,51.00
2017-09-18T11:05:27.584Z,51.50
2017-09-18T11:07:55.476Z,51.70
2017-09-18T11:10:23.103Z,51.20
2017-09-18T11:12:50.049Z,51.20
2017-09-18T11:15:16.953Z,51.50
2017-09-18T11:17:43.909Z,52.00
2017-09-18T11:20:10.764Z,52.50
2017-09-18T11:22:37.632Z,52.60
2017-09-18T11:25:04.561Z,53.50
2017-09-18T11:27:32.643Z,52.90
2017-09-18T11:29:59.767Z,52.90
2017-09-18T11:32:26.657Z,53.90
2017-09-18T11:34:53.595Z,53.90
2017-09-18T11:37:20.495Z,54.50
2017-09-18T11:39:47.444Z,54.70
2017-09-18T11:42:14.332Z,55.00
2017-09-18T11:44:41.327Z,53.90
2017-09-18T11:47:08.291Z,54.20
2017-09-18T11:49:35.184Z,54.70
2017-09-18T11:52:02.222Z,54.70
2017-09-18T11:54:29.141Z,54.10
2017-09-18T11:56:56.047Z,53.90
2017-09-18T11:59:23.117Z,54.10
2017-09-18T12:01:50.021Z,54.00
2017-09-18T12:04:16.989Z,55.00
2017-09-18T12:06:43.880Z,55.20
2017-09-18T12:09:10.769Z,56.00
2017-09-18T12:11:38.455Z,59.70
2017-09-18T12:14:05.333Z,59.70
2017-09-18T12:16:32.273Z,63.30
2017-09-18T12:18:59.236Z,63.20
2017-09-18T12:21:26.127Z,65.20
2017-09-18T12:23:53.086Z,65.20
2017-09-18T12:26:20.515Z,65.60
2017-09-18T12:28:47.504Z,65.70
2017-09-18T12:31:16.248Z,63.30
2017-09-18T12:33:45.482Z,62.40
2017-09-18T12:36:13.885Z,63.20
2017-09-18T12:38:42.628Z,63.00
2017-09-18T12:41:09.761Z,62.20
2017-09-18T12:43:38.282Z,59.60
2017-09-18T12:46:07.558Z,55.80
2017-09-18T12:48:35.154Z,55.10
2017-09-18T12:51:02.023Z,55.10
2017-09-18T12:53:28.986Z,55.40
2017-09-18T12:55:55.865Z,57.10
2017-09-18T12:58:22.757Z,56.20
2017-09-18T13:00:52.480Z,56.00
2017-09-18T13:03:20.755Z,57.10
2017-09-18T13:05:51.223Z,56.70
2017-09-18T13:08:18.252Z,54.90
2017-09-18T13:10:45.203Z,55.60
2017-09-18T13:13:12.914Z,56.70
2017-09-18T13:15:39.797Z,56.20
2017-09-18T13:18:06.667Z,57.30
2017-09-18T13:20:34.478Z,54.80
2017-09-18T13:23:02.812Z,54.80
2017-09-18T13:25:29.864Z,54.80
2017-09-18T13:27:57.464Z,53.80
2017-09-18T13:30:24.395Z,53.80
2017-09-18T13:32:51.417Z,54.70
2017-09-18T13:35:20.724Z,55.70
2017-09-18T13:37:47.790Z,55.70
2017-09-18T13:40:14.712Z,55.70
2017-09-18T13:42:42.337Z,54.90
2017-09-18T13:45:11.096Z,54.90
2017-09-18T13:47:37.989Z,55.30
2017-09-18T13:50:08.909Z,56.00
2017-09-18T13:52:35.923Z,55.00
2017-09-18T13:55:13.943Z,55.10
2017-09-18T13:57:43.970Z,55.50
2017-09-18T14:00:13.536Z,55.20
2017-09-18T14:02:41.260Z,55.10
2017-09-18T14:05:11.504Z,55.60
2017-09-18T14:07:38.453Z,54.70
2017-09-18T14:10:05.421Z,54.20
2017-09-18T14:12:33.105Z,52.90
2017-09-18T14:15:00.073Z,52.80
2017-09-18T14:17:32.597Z,52.00
2017-09-18T14:19:59.835Z,53.40
2017-09-18T14:22:29.010Z,53.60
2017-09-18T14:24:56.108Z,52.30
2017-09-18T14:27:23.885Z,54.50
2017-09-18T14:29:50.836Z,54.50
2017-09-18T14:32:18.742Z,57.00
2017-09-18T14:34:46.089Z,57.90
2017-09-18T14:37:13.069Z,58.20
2017-09-18T14:39:40.796Z,58.30
2017-09-18T14:42:07.812Z,58.60
2017-09-18T14:44:36.130Z,60.00
2017-09-18T14:47:05.664Z,59.50
2017-09-18T14:49:32.572Z,59.60
2017-09-18T14:52:02.405Z,59.20
2017-09-18T14:54:41.766Z,59.00
2017-09-18T14:57:10.463Z,57.80
2017-09-18T14:59:38.321Z,56.90
2017-09-18T15:02:06.143Z,56.00
2017-09-18T15:04:33.042Z,56.00
2017-09-18T15:07:00.682Z,55.40
2017-09-18T15:09:27.684Z,55.40
2017-09-18T15:11:54.584Z,53.90
2017-09-18T15:14:21.549Z,53.50
2017-09-18T15:16:49.186Z,56.30
2017-09-18T15:19:16.172Z,56.30
2017-09-18T15:21:43.083Z,56.90
2017-09-18T15:24:10.036Z,56.00
2017-09-18T15:26:36.945Z,57.10
2017-09-18T15:29:03.857Z,57.40
2017-09-18T15:31:30.789Z,58.40
2017-09-18T15:33:58.412Z,57.50
2017-09-18T15:36:25.440Z,57.50
2017-09-18T15:38:52.397Z,57.60
2017-09-18T15:41:19.943Z,56.60
2017-09-18T15:43:47.441Z,56.80
2017-09-18T15:46:14.367Z,53.80
2017-09-18T15:48:41.345Z,53.80
2017-09-18T15:51:08.216Z,53.90
2017-09-18T15:53:38.573Z,52.20
2017-09-18T15:56:10.722Z,51.00
2017-09-18T15:58:39.700Z,50.40
2017-09-18T16:01:10.262Z,51.00
2017-09-18T16:03:43.543Z,50.90
2017-09-18T16:06:15.528Z,50.10
2017-09-18T16:08:43.838Z,50.40
2017-09-18T16:11:12.280Z,50.60
2017-09-18T16:13:46.062Z,49.90
2017-09-18T16:16:15.440Z,50.90
2017-09-18T16:18:46.396Z,50.90
2017-09-18T16:21:17.441Z,52.70
2017-09-18T16:23:45.115Z,52.80
2017-09-18T16:26:12.845Z,52.60
2017-09-18T16:28:46.586Z,53.30
2017-09-18T16:31:20.022Z,53.50
2017-09-18T16:33:49.452Z,53.80
2017-09-18T16:36:23.373Z,54.50
2017-09-18T16:41:40.453Z,55.10
2017-09-18T16:44:12.186Z,55.70
2017-09-18T16:46:39.072Z,55.90
2017-09-18T16:49:07.408Z,56.50
2017-09-18T16:51:37.091Z,56.20
2017-09-18T16:54:04.449Z,56.00
2017-09-18T16:56:31.408Z,56.40
2017-09-18T16:58:59.130Z,57.70
2017-09-18T17:01:26.061Z,57.10
2017-09-18T17:03:52.934Z,58.70
2017-09-18T17:06:34.651Z,58.60
2017-09-18T17:09:15.206Z,59.20
2017-09-18T17:11:42.812Z,59.70
2017-09-18T17:14:09.692Z,60.30
2017-09-18T17:16:36.581Z,60.90
2017-09-18T17:19:03.549Z,61.20
2017-09-18T17:21:30.424Z,61.30
2017-09-18T17:24:11.737Z,62.10
2017-09-18T17:26:38.791Z,62.50
2017-09-18T17:29:06.495Z,64.50
2017-09-18T17:31:33.570Z,64.50
2017-09-18T17:34:00.472Z,64.90
2017-09-18T17:36:29.477Z,64.50
2017-09-18T17:38:58.565Z,65.00
2017-09-18T17:41:25.520Z,65.20
2017-09-18T17:43:54.641Z,65.10
2017-09-18T17:46:22.531Z,66.50
2017-09-18T17:48:53.082Z,66.50
2017-09-18T17:51:20.988Z,68.40
2017-09-18T17:53:47.913Z,68.40
2017-09-18T17:56:17.823Z,68.60
2017-09-18T17:58:45.045Z,69.00
2017-09-18T18:01:11.937Z,69.80
2017-09-18T18:03:38.925Z,70.40
2017-09-18T18:06:05.833Z,70.50
2017-09-18T18:08:32.752Z,70.60
2017-09-18T18:10:59.738Z,71.10
2017-09-18T18:13:26.678Z,71.30
2017-09-18T18:15:53.629Z,71.20
2017-09-18T18:18:20.524Z,71.40
2017-09-18T18:20:47.440Z,71.00
2017-09-18T18:23:14.405Z,70.80
2017-09-18T18:25:41.361Z,70.80
2017-09-18T18:28:08.252Z,71.00
2017-09-18T18:30:35.256Z,71.00
2017-09-18T18:33:04.212Z,71.10
2017-09-18T18:35:31.204Z,71.00
2017-09-18T18:37:58.937Z,70.00
2017-09-18T18:40:25.949Z,70.00
2017-09-18T18:42:52.932Z,69.60
2017-09-18T18:45:19.828Z,69.70
2017-09-18T18:47:46.802Z,69.50
2017-09-18T18:50:13.731Z,69.50
2017-09-18T18:52:40.636Z,69.60
2017-09-18T18:55:07.661Z,69.60
2017-09-18T18:57:34.781Z,69.50
2017-09-18T19:00:01.827Z,69.90
2017-09-18T19:02:28.834Z,70.00
2017-09-18T19:04:55.778Z,70.30
2017-09-18T19:07:22.824Z,70.00
2017-09-18T19:09:50.546Z,69.90
2017-09-18T19:12:17.684Z,69.90
2017-09-18T19:14:44.578Z,70.20
2017-09-18T19:17:11.544Z,70.30
2017-09-18T19:19:38.448Z,70.50
2017-09-18T19:22:05.480Z,70.90
2017-09-18T19:24:32.388Z,71.10
2017-09-18T19:26:59.372Z,71.30
2017-09-18T19:29:26.471Z,71.60
2017-09-18T19:31:53.377Z,71.40
2017-09-18T19:34:20.400Z,71.30
2017-09-18T19:36:58.496Z,71.80
2017-09-18T19:39:38.935Z,72.30
2017-09-18T19:42:06.910Z,73.00
2017-09-18T19:44:35.033Z,73.50
2017-09-18T19:47:02.014Z,73.40
2017-09-18T19:49:28.960Z,72.80
2017-09-18T19:51:55.950Z,72.60
2017-09-18T19:54:22.845Z,72.10
2017-09-18T19:57:07.641Z,72.40
2017-09-18T19:59:34.839Z,72.20
2017-09-18T20:02:01.750Z,72.40
2017-09-18T20:04:28.698Z,72.20
2017-09-18T20:06:55.721Z,71.90
2017-09-18T20:09:22.709Z,72.30
2017-09-18T20:11:49.704Z,72.70
2017-09-18T20:14:16.684Z,73.00
2017-09-18T20:16:43.629Z,73.30
2017-09-18T20:19:10.595Z,73.40
2017-09-18T20:21:37.522Z,73.30
2017-09-18T20:24:05.119Z,74.60
2017-09-18T20:26:33.271Z,73.90
2017-09-18T20:29:00.196Z,74.00
2017-09-18T20:31:28.267Z,74.00
2017-09-18T20:33:55.630Z,74.20
2017-09-18T20:36:23.419Z,73.90
2017-09-18T20:38:50.468Z,73.90
2017-09-18T20:41:17.417Z,73.80
2017-09-18T20:43:44.455Z,73.90
2017-09-18T20:46:13.863Z,74.00
2017-09-18T20:48:40.861Z,73.50
2017-09-18T20:51:07.868Z,73.60
2017-09-18T20:53:34.876Z,73.40
2017-09-18T20:56:01.800Z,73.50
2017-09-18T20:58:28.717Z,73.70
2017-09-18T21:00:55.734Z,73.60
2017-09-18T21:03:22.717Z,73.40
2017-09-18T21:06:04.266Z,73.90
2017-09-18T21:08:31.754Z,73.90
2017-09-18T21:11:14.031Z,73.50
2017-09-18T21:13:43.014Z,73.60
2017-09-18T21:16:18.677Z,73.00
2017-09-18T21:18:58.910Z,73.40
2017-09-18T21:21:26.744Z,73.30
2017-09-18T21:23:56.586Z,73.20
2017-09-18T21:26:25.429Z,73.30
2017-09-18T21:29:06.599Z,73.40
2017-09-18T21:31:39.907Z,73.60
2017-09-18T21:34:17.792Z,73.50
2017-09-18T21:36:45.643Z,74.30
2017-09-18T21:39:14.124Z,73.60
2017-09-18T21:41:42.265Z,73.50
2017-09-18T21:44:11.228Z,74.00
2017-09-18T21:46:38.274Z,73.50
2017-09-18T21:49:05.224Z,73.40
2017-09-18T21:51:32.157Z,73.40
2017-09-18T21:54:01.275Z,73.60
2017-09-18T21:56:28.158Z,73.80
2017-09-18T21:58:55.101Z,73.70
2017-09-18T22:01:22.012Z,73.60
2017-09-18T22:03:49.031Z,73.50
2017-09-18T22:06:16.741Z,74.00
2017-09-18T22:08:43.658Z,74.00
2017-09-18T22:11:10.593Z,74.20
2017-09-18T22:13:37.569Z,73.90
2017-09-18T22:16:04.521Z,74.00
2017-09-18T22:18:31.400Z,74.20
2017-09-18T22:20:58.390Z,75.20
2017-09-18T22:23:25.354Z,74.30
2017-09-18T22:25:52.356Z,74.30
2017-09-18T22:28:19.242Z,74.50
2017-09-18T22:30:46.259Z,74.80
2017-09-18T22:33:13.246Z,74.90
2017-09-18T22:35:40.248Z,74.90
2017-09-18T22:38:07.216Z,75.20
2017-09-18T22:40:34.128Z,75.50
2017-09-18T22:43:01.123Z,75.40
2017-09-18T22:45:28.069Z,75.30
2017-09-18T22:47:55.062Z,75.30
2017-09-18T22:50:22.080Z,75.20
2017-09-18T22:52:48.997Z,75.30
2017-09-18T22:55:16.000Z,75.40
2017-09-18T22:57:42.888Z,75.80
2017-09-18T23:00:09.942Z,75.60
2017-09-18T23:02:36.939Z,75.60
2017-09-18T23:05:03.888Z,75.50
2017-09-18T23:07:30.885Z,75.50
2017-09-18T23:09:57.823Z,75.70
2017-09-18T23:12:24.813Z,75.50
2017-09-18T23:14:51.708Z,75.40
2017-09-18T23:17:18.697Z,75.40
2017-09-18T23:19:45.668Z,75.30
2017-09-18T23:22:12.580Z,75.20
2017-09-18T23:24:39.531Z,75.20
2017-09-18T23:27:06.422Z,75.10
2017-09-18T23:29:33.345Z,75.10
2017-09-18T23:32:00.366Z,75.10
2017-09-18T23:34:27.277Z,75.10
2017-09-18T23:36:54.179Z,75.30
2017-09-18T23:39:21.146Z,74.90
2017-09-18T23:41:48.036Z,75.20
2017-09-18T23:44:15.020Z,75.40
2017-09-18T23:46:42.030Z,75.30
2017-09-18T23:49:09.016Z,75.30
2017-09-18T23:51:35.995Z,75.40
2017-09-18T23:54:02.953Z,75.30
2017-09-18T23:56:29.842Z,75.20
2017-09-18T23:58:56.818Z,75.20
